Kaneohe, HI

12:49 PM HST on May 22, 2015 (GMT -1000)
Haiku Plantations | | Change Station
CLOSE
Current Station
Personal Weather Station
Location: Kaneohe, HI
Elevation: 249 ft
Nearby Weather Stations

Elev 249 ft 21.42 °N, 157.82 °W | Updated 18 seconds ago

Mostly Cloudy
Mostly Cloudy
76.6 °F
Feels Like 78 °F
N
0.4
Wind Variable Wind from South
Gusts 2.5 mph

Today
High -- | Low -- °F
--% Chance of Precip.
Yesterday
High -- | Low -- °F
Precip. -- in
5:50 AM 7:05 PM
Waxing Crescent, 24% visible
Pressure 29.94 in
Visibility -9999.0 miles
Clouds Mostly Cloudy 3300 ft
Mostly Cloudy 5000 ft
Heat Index 78 °F
Dew Point 69 °F
Humidity 77%
Rainfall 0.00 in
Snow Depth Not available.
UV 1.0 out of 12
Pollen Not available.
Air Quality Not available.
Flu Activity Local Activity
METAR PHNG 222157Z 01008KT BKN033 BKN050 26/19 A2995 RMK AO2 SLP137 T02610194 $

More Conditions Fewer Conditions

Pressure 29.94 in
Visibility -9999.0 miles
Clouds Mostly Cloudy 3300 ft
Mostly Cloudy 5000 ft
Heat Index 78 °F
Dew Point 69 °F
Humidity 77%
Rainfall 0.00 in
Snow Depth Not available.
UV 1.0 out of 12
Pollen Not available.
Air Quality Not available.
Flu Activity Local Activity
METAR PHNG 222157Z 01008KT BKN033 BKN050 26/19 A2995 RMK AO2 SLP137 T02610194 $

More Conditions Fewer Conditions

10-Day Weather Forecast

Almanac

Astronomy

May. 22, 2015 Rise Set
Actual Time
Civil Twilight
Nautical Twilight
Astronomical Twilight
Moon
Length of Visible Light
Length of Day
Tomorrow will be .
, % of the Moon is Illuminated

Today's Extremes

State Highs State Lows

Community

WunderPhotos

Upload Photos

1,823,323 photos uploaded!

WunderBlogs® & News

Nearby

Air Quality

  Air Quality AQ Index Pollutant
Not available.

Snow Depth

Station Depth Elevation

Earthquake Activity

City Distance Mag. Time & Date
Minimum magnitude displayed is 2.5.

Coastal Water Temperatures

Place Temperature

Stations

Nearby Weather Stations

Station Location Temp. Windchill Dew Point Humidity Wind Precip. Elev Updated Type